Strathmore, New Jersey
Current Conditions -  °F | °C
As of 2:15 AM on Thursday 23 Oct 2014 (Local Time) from KLDJ Reporting Station
Overcast Overcast  
Wind Chill: 57°   Ceiling: 2500
Heat Index: 57°   Visibility: 10mi
Dew Point: 50°   Wind: 14mph
Humidity: 78%   Direction: 20°NNE
Pressure: 29.74"   Gusts: 20mph
Location:  40.4118°N, 74.2499°W
Report Text: KLDJ 230615Z AUTO 02012G17KT 10SM BKN025 OVC031 14/10 A2974 RMK AO2 LTG DSNT E T01370099
Loading
Personal Weather Stations






























Interactive Weather Map
Tropical Storm Tracking
New forecast layout! Learn more

10-Day Weather Forecast

Advertisements
Track Severe Weather on mobile